KTPA/TPA METAR and TAF weather

Enter ICAO airport designator
Station Type Date Time Source
KTPA METAR 2020/03/31 05:53 UTC NOAA

KTPA 310553Z 00000KT 10SM BKN045 BKN280 25/19 A2998


Station Type Date Time Source
KTPA Decoded METAR 2020/03/31 05:53 UTC NOAA

TAMPA INTERNATIONAL AIRPORT , FL, United States (KTPA) 27-58N 082-32W 11M
Mar 31, 2020 - 01:53 AM EDT / 2020.03.31 0553 UTC
Wind: Calm:0
Visibility: 10 mile(s):0
Sky conditions: mostly cloudy
Temperature: 77 F (25 C)
Dew Point: 66 F (19 C)
Relative Humidity: 69%
Pressure (altimeter): 29.98 in. Hg (1015 hPa)
ob: KTPA 310553Z 00000KT 10SM BKN045 BKN280 25/19 A2998
cycle: 6

Station Type Date Time Source
KTPA TAF 2020/03/31 06:36 UTC NOAA

TAF KTPA 310533Z 3106/0112 VRB03KT P6SM FEW050 SCT250
FM311400 22011KT P6SM SCT020 SCT250
FM311700 24017G24KT P6SM SCT035 BKN250
FM010000 25013G20KT P6SM VCSH SCT025 BKN250
FM010800 31012KT P6SM SCT035 BKN250

Example: see airport list